Time;durP1;ratioP1;P1;durP2;ratioP2;P2;SDS_P1;SDS_P2;PMS_P1;PMS_P2;Temp;Humidity;BMP_temperature;BMP_pressure;BME280_temperature;BME280_humidity;BME280_pressure;Samples;Min_cycle;Max_cycle;Signal;HPM_P1;HPM_P2
2022/10/14 00:02:27;;;;;;;16.65;9.45;;;;;;;8.51;67.99;101576.80;1651199;86;21744;-55
2022/10/14 00:05:33;;;;;;;15.08;8.18;;;;;;;8.52;68.01;101574.91;1652991;86;21398;-56
2022/10/14 00:08:38;;;;;;;15.10;8.70;;;;;;;8.54;68.06;101574.28;1641032;86;21291;-56
2022/10/14 00:11:44;;;;;;;23.27;12.73;;;;;;;8.56;68.13;101580.48;1632338;87;21266;-57
2022/10/14 00:14:53;;;;;;;21.75;12.05;;;;;;;8.56;68.09;101586.78;1632224;88;21227;-56
2022/10/14 00:17:59;;;;;;;20.70;11.33;;;;;;;8.54;68.14;101578.38;1632866;86;21302;-57
2022/10/14 00:21:07;;;;;;;18.27;10.28;;;;;;;8.53;68.13;101584.84;1632364;88;21195;-56
2022/10/14 00:24:16;;;;;;;13.98;8.40;;;;;;;8.53;68.10;101580.75;1633468;86;21247;-56
2022/10/14 00:27:23;;;;;;;15.58;8.70;;;;;;;8.51;68.13;101572.70;1638863;87;21238;-57
2022/10/14 00:30:32;;;;;;;19.95;9.60;;;;;;;8.52;68.15;101581.73;1634077;86;21215;-55
2022/10/14 00:33:38;;;;;;;12.88;8.03;;;;;;;8.50;68.14;101581.87;1638696;87;21223;-56
2022/10/14 00:36:47;;;;;;;15.90;8.48;;;;;;;8.50;68.16;101572.31;1632425;87;21202;-57
2022/10/14 00:39:53;;;;;;;14.85;8.43;;;;;;;8.51;68.24;101577.28;1638881;87;21274;-57
2022/10/14 00:43:00;;;;;;;15.60;7.35;;;;;;;8.52;68.26;101574.91;1632343;87;21254;-55
2022/10/14 00:46:05;;;;;;;11.53;7.12;;;;;;;8.53;68.30;101573.93;1638903;87;21262;-55
2022/10/14 00:49:40;;;;;;;13.43;7.62;;;;;;;8.54;68.34;101571.55;1590845;89;21315;-56
2022/10/14 00:52:46;;;;;;;12.40;6.92;;;;;;;8.56;68.38;101573.14;1593528;89;21237;-56
2022/10/14 00:55:50;;;;;;;13.35;6.97;;;;;;;8.55;68.29;101567.81;1593579;90;21241;-55
2022/10/14 00:58:56;;;;;;;15.75;7.20;;;;;;;8.54;68.30;101567.47;1593502;89;21253;-55
2022/10/14 01:02:02;;;;;;;12.55;7.70;;;;;;;8.54;68.33;101566.97;1593474;90;21242;-57
2022/10/14 01:05:09;;;;;;;13.43;6.42;;;;;;;8.53;68.31;101562.49;1593475;90;21229;-57
2022/10/14 01:08:25;;;;;;;16.23;6.85;;;;;;;8.50;68.22;101568.22;1593461;90;21246;-56
2022/10/14 01:11:42;;;;;;;13.90;7.30;;;;;;;8.47;68.20;101563.03;1593528;90;21288;-56
2022/10/14 01:15:07;;;;;;;11.97;6.20;;;;;;;8.48;68.36;101564.75;1591775;90;21455;-56
2022/10/14 01:18:25;;;;;;;13.13;7.50;;;;;;;8.48;68.40;101563.39;1593460;90;21333;-56
2022/10/14 01:22:01;;;;;;;12.05;7.17;;;;;;;8.48;68.41;101564.75;1593497;90;21257;-56
2022/10/14 01:25:26;;;;;;;12.80;7.05;;;;;;;8.47;68.46;101562.16;1593480;90;21253;-57
2022/10/14 01:28:44;;;;;;;9.65;7.22;;;;;;;8.43;68.41;101559.34;1593540;90;21297;-57
2022/10/14 01:31:53;;;;;;;13.15;6.85;;;;;;;8.41;68.36;101566.80;1593543;90;21225;-56
2022/10/14 01:35:03;;;;;;;11.33;7.62;;;;;;;8.37;68.36;101561.25;1593419;90;21365;-56
2022/10/14 01:38:28;;;;;;;12.10;7.15;;;;;;;8.35;68.42;101562.75;1572980;90;21796;-57
2022/10/14 01:41:40;;;;;;;16.30;7.33;;;;;;;8.35;68.42;101567.33;1593503;89;21335;-56
2022/10/14 01:44:49;;;;;;;15.18;7.10;;;;;;;8.32;68.54;101566.23;1593471;90;21249;-55
2022/10/14 01:47:57;;;;;;;11.75;6.80;;;;;;;8.33;68.60;101572.05;1599831;86;21303;-55
2022/10/14 01:51:07;;;;;;;11.27;7.73;;;;;;;8.31;68.60;101564.52;1631968;88;21227;-57
2022/10/14 01:54:21;;;;;;;15.43;7.58;;;;;;;8.29;68.58;101567.87;1631254;87;21303;-56
2022/10/14 01:57:32;;;;;;;15.40;7.92;;;;;;;8.27;68.57;101569.37;1631864;88;21251;-56
2022/10/14 02:00:37;;;;;;;12.40;7.50;;;;;;;8.25;68.51;101573.20;1631702;87;21720;-56
2022/10/14 02:03:49;;;;;;;13.20;7.80;;;;;;;8.21;68.51;101575.81;1632260;86;21277;-56
2022/10/14 02:07:05;;;;;;;13.13;7.60;;;;;;;8.18;68.61;101572.83;1631479;88;21231;-56
2022/10/14 02:10:33;;;;;;;14.85;7.70;;;;;;;8.21;68.77;101575.81;1646429;86;21219;-57
2022/10/14 02:14:06;;;;;;;11.93;7.75;;;;;;;8.22;68.86;101579.77;1657070;86;21246;-56
2022/10/14 02:17:16;;;;;;;11.03;7.37;;;;;;;8.23;68.93;101580.68;1652750;87;21859;-56
2022/10/14 02:20:43;;;;;;;10.30;7.33;;;;;;;8.23;69.00;101576.06;1653075;87;21236;-56
2022/10/14 02:24:02;;;;;;;12.88;8.00;;;;;;;8.23;69.01;101580.68;1637259;86;21306;-55
2022/10/14 02:27:11;;;;;;;11.43;7.80;;;;;;;8.21;68.95;101583.99;1631836;88;21214;-56
2022/10/14 02:30:17;;;;;;;16.27;7.83;;;;;;;8.16;68.85;101576.70;1631880;88;21267;-55
2022/10/14 02:33:24;;;;;;;12.80;7.60;;;;;;;8.11;68.78;101578.46;1631309;88;21271;-55
2022/10/14 02:36:26;;;;;;;13.28;8.08;;;;;;;8.06;68.87;101575.73;1631918;88;21286;-57
2022/10/14 02:39:23;;;;;;;13.38;7.78;;;;;;;8.06;68.98;101577.11;1631416;87;21264;-57
2022/10/14 02:42:28;;;;;;;17.35;7.03;;;;;;;8.03;68.98;101578.73;1631540;87;21202;-55
2022/10/14 02:45:35;;;;;;;11.88;7.12;;;;;;;8.00;69.01;101582.60;1631767;87;21242;-56
2022/10/14 02:48:43;;;;;;;14.40;8.13;;;;;;;7.98;69.03;101583.70;1624650;87;21214;-56
2022/10/14 02:51:48;;;;;;;16.12;8.58;;;;;;;7.96;69.08;101580.27;1620518;88;21277;-56
2022/10/14 02:54:54;;;;;;;13.62;8.10;;;;;;;7.95;69.13;101582.12;1620318;88;21260;-56
2022/10/14 02:58:00;;;;;;;16.80;8.20;;;;;;;7.94;69.07;101576.80;1620973;87;21221;-57
2022/10/14 03:01:07;;;;;;;11.45;7.80;;;;;;;7.89;68.97;101583.13;1620440;88;21252;-56
2022/10/14 03:04:13;;;;;;;11.70;7.60;;;;;;;7.87;68.99;101590.08;1620179;88;21792;-56
2022/10/14 03:07:19;;;;;;;12.90;7.78;;;;;;;7.83;69.01;101583.17;1621497;87;21288;-56
2022/10/14 03:10:27;;;;;;;14.35;7.58;;;;;;;7.83;69.11;101580.93;1636929;87;21292;-56
2022/10/14 03:13:32;;;;;;;15.75;7.15;;;;;;;7.78;69.05;101575.87;1636951;87;21300;-56
2022/10/14 03:16:39;;;;;;;13.53;7.17;;;;;;;7.77;69.22;101579.56;1632339;87;21414;-57
2022/10/14 03:19:48;;;;;;;13.28;7.28;;;;;;;7.76;69.27;101583.78;1621345;87;21264;-56
2022/10/14 03:22:53;;;;;;;14.18;7.42;;;;;;;7.76;69.34;101587.88;1620311;88;21240;-56
2022/10/14 03:26:00;;;;;;;11.45;7.15;;;;;;;7.72;69.29;101575.52;1620561;87;21281;-56
2022/10/14 03:29:13;;;;;;;13.27;8.07;;;;;;;7.71;69.34;101577.88;1599257;89;21851;-56
2022/10/14 03:32:24;;;;;;;13.32;6.80;;;;;;;7.68;69.34;101582.20;1621245;88;21217;-56
2022/10/14 03:35:32;;;;;;;10.98;6.85;;;;;;;7.64;69.38;101575.64;1618860;88;21244;-55
2022/10/14 03:38:41;;;;;;;11.15;7.30;;;;;;;7.60;69.47;101578.27;1625186;87;21259;-55
2022/10/14 03:41:46;;;;;;;15.90;7.45;;;;;;;7.55;69.39;101572.33;1627697;87;21232;-55
2022/10/14 03:44:41;;;;;;;15.72;8.18;;;;;;;7.50;69.40;101578.66;1620803;87;21276;-55
2022/10/14 03:47:49;;;;;;;14.03;8.25;;;;;;;7.44;69.42;101573.72;1620315;88;21264;-55
2022/10/14 03:50:56;;;;;;;16.30;8.75;;;;;;;7.40;69.52;101569.50;1626560;87;21310;-55
2022/10/14 03:54:03;;;;;;;13.20;8.80;;;;;;;7.37;69.55;101575.72;1628720;87;21294;-55
2022/10/14 03:57:09;;;;;;;14.90;8.78;;;;;;;7.32;69.55;101567.06;1637091;87;21254;-55
2022/10/14 04:00:18;;;;;;;13.43;7.85;;;;;;;7.26;69.54;101578.47;1638992;87;21263;-54
2022/10/14 04:03:28;;;;;;;32.55;21.20;;;;;;;7.20;69.52;101579.81;1634836;86;21719;-54
2022/10/14 04:06:35;;;;;;;41.50;23.65;;;;;;;7.15;69.55;101568.95;1648695;86;21234;-55
2022/10/14 04:09:43;;;;;;;24.25;14.45;;;;;;;7.07;69.48;101572.78;1637625;86;21327;-56
2022/10/14 04:12:49;;;;;;;23.05;13.48;;;;;;;7.00;69.46;101576.50;1664992;86;21228;-54
2022/10/14 04:15:58;;;;;;;17.85;11.05;;;;;;;6.95;69.52;101577.84;1664930;86;21285;-55
2022/10/14 04:19:07;;;;;;;15.28;8.90;;;;;;;6.88;69.54;101577.47;1648420;86;21226;-55
2022/10/14 04:22:13;;;;;;;17.25;8.80;;;;;;;6.81;69.53;101576.24;1632433;88;21230;-55
2022/10/14 04:25:20;;;;;;;17.17;8.65;;;;;;;6.72;69.53;101574.27;1638545;87;21336;-54
2022/10/14 04:28:27;;;;;;;12.93;8.00;;;;;;;6.68;69.66;101566.44;1632343;87;21437;-54
2022/10/14 04:31:35;;;;;;;25.12;11.90;;;;;;;6.64;69.69;101574.02;1632189;87;21231;-55
2022/10/14 04:34:42;;;;;;;28.75;15.38;;;;;;;6.59;69.77;101577.58;1632068;87;21322;-55
2022/10/14 04:37:49;;;;;;;20.60;10.95;;;;;;;6.59;69.87;101582.14;1633127;85;21219;-55
2022/10/14 04:40:55;;;;;;;20.15;10.95;;;;;;;6.59;69.94;101580.30;1632468;87;21227;-55
2022/10/14 04:44:04;;;;;;;22.95;11.78;;;;;;;6.57;69.93;101576.83;1638423;87;21783;-54
2022/10/14 04:47:13;;;;;;;19.20;10.58;;;;;;;6.54;69.86;101577.56;1648583;83;21236;-54
2022/10/14 04:50:21;;;;;;;20.12;11.28;;;;;;;6.51;69.84;101573.72;1654522;84;21259;-54
2022/10/14 04:53:37;;;;;;;18.12;9.68;;;;;;;6.52;69.92;101586.32;1644086;85;21220;-54
2022/10/14 04:56:49;;;;;;;18.48;9.33;;;;;;;6.55;70.06;101583.39;1620886;88;21262;-55
2022/10/14 04:59:57;;;;;;;18.57;9.20;;;;;;;6.61;70.16;101586.47;1612518;86;21284;-56
2022/10/14 05:03:09;;;;;;;15.23;9.15;;;;;;;6.67;70.19;101597.38;1649035;86;21239;-58
2022/10/14 05:06:16;;;;;;;13.65;7.80;;;;;;;6.68;70.16;101588.20;1627655;86;21560;-58
2022/10/14 05:09:22;;;;;;;17.17;7.95;;;;;;;6.70;70.15;101593.05;1667502;84;21241;-57
2022/10/14 05:12:30;;;;;;;16.40;7.97;;;;;;;6.70;70.20;101593.05;1679483;84;21660;-58
2022/10/14 05:15:37;;;;;;;13.20;6.75;;;;;;;6.76;70.32;101596.63;1623092;86;21275;-59
2022/10/14 05:18:46;;;;;;;15.10;7.17;;;;;;;6.77;70.29;101597.87;1601890;89;21240;-57
2022/10/14 05:21:52;;;;;;;13.50;6.55;;;;;;;6.79;70.29;101601.34;1620203;87;21272;-58
2022/10/14 05:24:59;;;;;;;13.85;7.55;;;;;;;6.80;70.33;101601.70;1615984;88;21251;-56
2022/10/14 05:28:05;;;;;;;14.23;7.12;;;;;;;6.83;70.38;101597.89;1602585;89;21299;-57
2022/10/14 05:31:14;;;;;;;13.72;6.85;;;;;;;6.83;70.36;101600.13;1580428;88;21214;-57
2022/10/14 05:34:24;;;;;;;15.05;6.83;;;;;;;6.84;70.38;101603.21;1575284;90;21275;-57
2022/10/14 05:37:33;;;;;;;11.88;6.70;;;;;;;6.85;70.41;101600.00;1621326;87;21761;-58
2022/10/14 05:40:39;;;;;;;10.90;6.42;;;;;;;6.88;70.45;101603.33;1643477;86;21228;-57
2022/10/14 05:43:47;;;;;;;15.40;6.70;;;;;;;6.89;70.43;101613.24;1644786;85;21268;-56
2022/10/14 05:46:54;;;;;;;13.30;6.28;;;;;;;6.90;70.45;101605.92;1643612;85;21774;-58
2022/10/14 05:50:02;;;;;;;10.88;6.12;;;;;;;6.93;70.48;101617.44;1623078;87;21208;-57
2022/10/14 05:53:12;;;;;;;14.13;6.83;;;;;;;6.98;70.52;101613.86;1650035;82;21263;-57
2022/10/14 05:56:21;;;;;;;12.78;6.20;;;;;;;7.02;70.54;101614.00;1633517;87;21748;-57
2022/10/14 05:59:28;;;;;;;15.60;7.47;;;;;;;7.05;70.58;101611.03;1646759;85;21282;-57
2022/10/14 06:02:38;;;;;;;12.05;6.03;;;;;;;7.11;70.62;101617.34;1664723;85;21211;-57
2022/10/14 06:05:44;;;;;;;11.03;6.03;;;;;;;7.18;70.68;101624.00;1649516;86;21247;-58
2022/10/14 06:08:50;;;;;;;14.60;6.08;;;;;;;7.23;70.73;101620.93;1647570;86;21246;-57
2022/10/14 06:11:59;;;;;;;14.80;5.90;;;;;;;7.30;70.79;101625.75;1645508;86;21232;-56
2022/10/14 06:15:06;;;;;;;11.85;6.60;;;;;;;7.38;70.87;101625.99;1647773;86;21232;-56
2022/10/14 06:18:15;;;;;;;10.72;5.90;;;;;;;7.46;70.93;101623.51;1649561;86;21251;-56
2022/10/14 06:21:21;;;;;;;10.75;6.00;;;;;;;7.56;70.99;101624.46;1621254;87;21215;-57
2022/10/14 06:24:27;;;;;;;12.78;6.40;;;;;;;7.63;71.00;101623.98;1645736;87;21355;-56
2022/10/14 06:27:35;;;;;;;11.85;6.30;;;;;;;7.71;71.04;101621.49;1646975;85;21200;-58
2022/10/14 06:30:41;;;;;;;13.53;5.78;;;;;;;7.80;71.07;101624.28;1648031;86;21283;-53
2022/10/14 06:33:47;;;;;;;10.72;5.45;;;;;;;7.87;71.05;101622.79;1654143;86;21234;-54
2022/10/14 06:36:54;;;;;;;9.70;5.10;;;;;;;7.95;71.11;101624.87;1659960;86;21223;-54
2022/10/14 06:40:01;;;;;;;10.90;5.55;;;;;;;8.02;71.16;101629.70;1655432;86;21219;-54
2022/10/14 06:43:09;;;;;;;10.00;5.60;;;;;;;8.12;71.22;101629.80;1648890;85;21246;-52
2022/10/14 06:46:16;;;;;;;9.50;4.47;;;;;;;8.22;71.29;101626.14;1653434;85;21207;-59
2022/10/14 06:49:24;;;;;;;14.38;5.00;;;;;;;8.32;71.31;101625.77;1658825;85;21239;-57
2022/10/14 06:52:31;;;;;;;10.15;5.40;;;;;;;8.43;71.34;101628.93;1659632;86;21211;-57
2022/10/14 06:55:39;;;;;;;10.85;4.87;;;;;;;8.54;71.34;101623.41;1662325;84;21291;-56
2022/10/14 06:58:45;;;;;;;9.15;4.47;;;;;;;8.64;71.36;101627.08;1666836;85;21291;-57
2022/10/14 07:01:51;;;;;;;10.88;4.03;;;;;;;8.72;71.36;101622.67;1666719;85;21274;-57
2022/10/14 07:04:59;;;;;;;7.33;4.35;;;;;;;8.83;71.37;101620.38;1635196;85;21269;-56
2022/10/14 07:08:07;;;;;;;10.58;4.17;;;;;;;8.91;71.36;101621.42;1661585;85;21228;-56
2022/10/14 07:11:14;;;;;;;13.05;4.90;;;;;;;9.00;71.36;101621.13;1656665;85;21251;-57
2022/10/14 07:15:12;;;;;;;7.25;3.75;;;;;;;9.12;71.37;101620.02;1649877;85;21255;-63
2022/10/14 07:18:42;;;;;;;7.37;3.40;;;;;;;9.33;71.36;101620.84;1899859;74;22304;-58
2022/10/14 07:21:49;;;;;;;10.45;4.00;;;;;;;9.34;71.36;101619.83;1826296;78;21220;-56
2022/10/14 07:24:57;;;;;;;7.17;3.52;;;;;;;9.41;71.33;101616.92;1881367;76;21208;-57
2022/10/14 07:28:04;;;;;;;5.50;3.00;;;;;;;9.51;71.31;101615.09;1803538;79;21201;-57
2022/10/14 07:31:15;;;;;;;7.10;4.03;;;;;;;9.60;71.29;101620.21;1866558;76;21188;-56
2022/10/14 07:34:21;;;;;;;5.00;2.95;;;;;;;9.67;71.29;101614.56;1844215;77;21247;-57
2022/10/14 07:37:28;;;;;;;7.47;2.90;;;;;;;9.77;71.31;101610.83;1844555;78;21208;-57
2022/10/14 07:40:35;;;;;;;7.22;4.10;;;;;;;9.90;71.32;101616.91;1856148;76;21717;-56
2022/10/14 07:43:41;;;;;;;4.62;2.40;;;;;;;9.98;71.25;101615.70;1804931;79;21331;-56
2022/10/14 07:46:48;;;;;;;5.12;2.95;;;;;;;10.06;71.23;101606.77;1832200;78;21243;-53
2022/10/14 07:49:56;;;;;;;4.92;2.77;;;;;;;10.14;71.17;101605.09;1846374;76;21235;-54
2022/10/14 07:53:02;;;;;;;7.25;2.58;;;;;;;10.21;71.12;101593.92;1846042;76;21208;-54
2022/10/14 07:56:10;;;;;;;7.05;2.92;;;;;;;10.29;71.08;101595.44;1876059;76;21164;-54
2022/10/14 07:59:16;;;;;;;5.72;3.02;;;;;;;10.39;71.12;101596.80;1858217;76;21335;-52
2022/10/14 08:02:24;;;;;;;5.72;2.40;;;;;;;10.48;71.05;101597.31;1843436;78;21819;-53
2022/10/14 08:05:28;;;;;;;3.67;2.45;;;;;;;10.55;71.02;101591.10;1772582;80;21784;-52
2022/10/14 08:08:37;;;;;;;5.72;2.72;;;;;;;10.65;70.97;101594.32;1772598;81;21780;-53
2022/10/14 08:11:45;;;;;;;5.62;2.40;;;;;;;10.72;70.95;101594.95;1844829;78;21204;-51
2022/10/14 08:14:52;;;;;;;5.03;2.37;;;;;;;10.80;70.90;101590.97;1844235;77;21541;-52
2022/10/14 08:18:00;;;;;;;4.58;2.33;;;;;;;10.87;70.85;101595.35;1762162;80;21797;-53
2022/10/14 08:21:05;;;;;;;5.22;2.10;;;;;;;10.95;70.77;101596.84;1739821;82;21196;-53
2022/10/14 08:24:11;;;;;;;6.40;2.27;;;;;;;11.00;70.66;101589.92;1760385;81;21264;-51
2022/10/14 08:27:18;;;;;;;5.17;1.92;;;;;;;11.08;70.59;101589.16;1751315;81;21244;-53
2022/10/14 08:30:24;;;;;;;2.92;1.65;;;;;;;11.18;70.54;101588.63;1768179;81;21773;-53
2022/10/14 08:33:31;;;;;;;3.10;1.60;;;;;;;11.27;70.50;101580.87;1768484;81;21336;-53
2022/10/14 08:36:37;;;;;;;2.75;1.70;;;;;;;11.38;70.40;101573.31;1768086;81;21193;-53
2022/10/14 08:39:42;;;;;;;3.30;1.52;;;;;;;11.50;70.30;101575.33;1768175;81;21279;-54
2022/10/14 08:43:22;;;;;;;3.33;1.90;;;;;;;11.57;70.17;101575.95;1768268;81;21331;-54
2022/10/14 08:46:36;;;;;;;3.27;1.60;;;;;;;11.66;70.06;101574.19;1741461;81;21695;-54
2022/10/14 08:50:17;;;;;;;4.20;1.57;;;;;;;11.84;69.95;101573.72;1768392;81;21610;-54
2022/10/14 08:53:30;;;;;;;2.47;1.60;;;;;;;12.02;69.90;101576.82;1750955;82;21832;-54
2022/10/14 08:56:41;;;;;;;7.03;1.75;;;;;;;12.27;69.78;101571.57;1783675;80;21201;-52
2022/10/14 08:59:47;;;;;;;3.47;1.52;;;;;;;12.50;69.67;101568.67;1780226;80;21220;-53
2022/10/14 09:02:57;;;;;;;4.65;1.60;;;;;;;12.73;69.57;101572.11;1804270;78;21191;-53
2022/10/14 09:06:10;;;;;;;3.85;1.60;;;;;;;12.91;69.26;101566.56;1804027;79;21224;-53
2022/10/14 09:09:20;;;;;;;3.95;1.80;;;;;;;13.06;69.03;101563.11;1803292;79;21204;-52
2022/10/14 09:12:33;;;;;;;3.17;1.72;;;;;;;13.19;68.96;101552.50;1804316;79;21725;-52
2022/10/14 09:15:46;;;;;;;4.83;1.50;;;;;;;13.32;68.75;101568.05;1803624;79;21185;-52
2022/10/14 09:19:04;;;;;;;2.47;1.50;;;;;;;13.41;68.55;101568.95;1806926;77;21193;-51
2022/10/14 09:22:18;;;;;;;4.83;2.00;;;;;;;13.48;68.42;101570.00;1850173;76;21314;-54
2022/10/14 09:25:27;;;;;;;2.80;1.52;;;;;;;13.57;68.33;101562.15;1783276;79;21180;-54
2022/10/14 09:28:45;;;;;;;3.10;1.75;;;;;;;13.65;68.08;101571.81;1769303;81;21752;-52
2022/10/14 09:31:51;;;;;;;5.40;1.50;;;;;;;13.72;67.87;101569.23;1803735;79;21220;-51
2022/10/14 09:34:58;;;;;;;3.42;1.45;;;;;;;13.82;67.87;101570.83;1809085;78;21361;-53
2022/10/14 09:38:04;;;;;;;2.90;1.30;;;;;;;13.92;67.77;101563.80;1776280;80;21259;-53
2022/10/14 09:41:14;;;;;;;2.92;1.40;;;;;;;13.97;67.43;101560.02;1754815;80;21236;-53
2022/10/14 09:44:31;;;;;;;4.80;1.50;;;;;;;14.01;67.22;101552.63;1788016;79;21244;-53
2022/10/14 09:47:37;;;;;;;4.83;1.67;;;;;;;14.12;67.16;101558.31;1772943;81;21266;-54
2022/10/14 09:50:50;;;;;;;3.05;1.25;;;;;;;14.30;67.20;101552.18;1802266;79;21335;-53
2022/10/14 09:54:03;;;;;;;3.95;1.22;;;;;;;14.46;67.22;101550.81;1804354;79;21209;-53
2022/10/14 09:57:14;;;;;;;4.20;1.45;;;;;;;14.63;67.09;101549.25;1775147;79;21338;-54
2022/10/14 10:00:33;;;;;;;2.75;1.55;;;;;;;14.80;66.86;101548.19;1806338;78;21193;-54
2022/10/14 10:03:40;;;;;;;5.25;1.50;;;;;;;14.97;66.58;101549.00;1781297;79;21757;-53
2022/10/14 10:06:52;;;;;;;3.05;1.35;;;;;;;15.04;66.20;101552.79;1806925;78;21303;-57
2022/10/14 10:10:06;;;;;;;4.87;1.77;;;;;;;15.13;65.99;101543.98;1883833;76;21176;-56
2022/10/14 10:13:31;;;;;;;4.53;2.67;;;;;;;15.29;65.89;101548.05;1883825;76;21777;-55
2022/10/14 10:16:38;;;;;;;4.45;1.37;;;;;;;15.44;65.86;101544.42;1883743;76;21164;-57
2022/10/14 10:19:50;;;;;;;2.92;1.45;;;;;;;15.59;65.68;101542.61;1880155;76;21745;-56
2022/10/14 10:22:57;;;;;;;2.45;1.20;;;;;;;15.63;65.22;101538.97;1852420;77;21249;-55
2022/10/14 10:26:25;;;;;;;2.42;1.32;;;;;;;15.68;65.13;101540.13;1841707;77;21205;-56
2022/10/14 10:29:34;;;;;;;4.47;1.60;;;;;;;15.80;65.10;101537.33;1832515;78;21220;-55
2022/10/14 10:32:53;;;;;;;1.80;1.12;;;;;;;15.85;64.99;101534.89;1833698;77;21232;-58
2022/10/14 10:36:14;;;;;;;1.98;1.17;;;;;;;15.87;64.91;101532.78;1772310;79;21379;-58
2022/10/14 10:39:58;;;;;;;1.95;1.02;;;;;;;15.83;64.63;101523.16;1838285;78;21279;-56
2022/10/14 10:43:27;;;;;;;3.52;1.30;;;;;;;15.75;64.50;101524.58;1838674;78;21808;-56
2022/10/14 10:46:44;;;;;;;3.15;1.40;;;;;;;15.70;64.38;101533.92;1838025;78;21733;-58
2022/10/14 10:50:07;;;;;;;2.30;1.12;;;;;;;15.68;64.45;101530.47;1761039;80;21209;-57
2022/10/14 10:53:48;;;;;;;;;;;;;;;15.42;63.85;101530.44;1829427;77;21173;-57
2022/10/14 10:57:23;;;;;;;6.07;1.77;;;;;;;14.88;63.63;101523.88;1803966;78;20205;-57
2022/10/14 11:00:28;;;;;;;5.97;1.87;;;;;;;14.49;63.81;101522.37;1758318;81;21217;-58
2022/10/14 11:03:43;;;;;;;8.45;2.00;;;;;;;14.20;63.82;101521.14;1832164;78;21820;-60
2022/10/14 11:15:21;;;;;;;4.97;2.10;;;;;;;13.73;63.99;101525.56;1757764;81;21312;-59
2022/10/14 11:18:54;;;;;;;6.00;1.90;;;;;;;13.64;63.98;101519.16;1831117;78;21196;-58
2022/10/14 11:22:27;;;;;;;4.55;1.90;;;;;;;13.60;63.97;101515.54;1763157;80;21251;-59
2022/10/14 11:25:48;;;;;;;3.30;1.37;;;;;;;13.72;64.11;101517.80;1838146;78;21534;-64
2022/10/14 11:29:10;;;;;;;3.67;1.57;;;;;;;14.03;64.22;101508.41;1777648;80;21706;-64
2022/10/14 11:32:26;;;;;;;3.70;1.50;;;;;;;14.33;64.15;101511.89;1802545;76;21161;-63
2022/10/14 11:36:10;;;;;;;2.08;1.20;;;;;;;14.59;63.88;101509.28;1837632;76;21352;-63
2022/10/14 11:39:42;;;;;;;9.70;5.42;;;;;;;14.85;63.83;101502.17;1867605;76;21208;-62
2022/10/14 11:43:12;;;;;;;5.78;2.52;;;;;;;15.14;63.66;101510.71;1841047;76;21265;-63
2022/10/14 11:46:21;;;;;;;4.67;2.22;;;;;;;15.41;63.63;101507.53;1768941;80;21201;-62
2022/10/14 11:49:38;;;;;;;4.78;1.70;;;;;;;15.64;63.41;101508.42;1859480;76;21181;-62
2022/10/14 11:52:52;;;;;;;4.80;1.70;;;;;;;15.82;63.25;101497.10;1845220;76;21772;-62
2022/10/14 11:56:28;;;;;;;2.80;1.52;;;;;;;15.95;62.96;101498.75;1777718;80;21217;-63
2022/10/14 12:03:58;;;;;;;3.37;1.30;;;;;;;16.11;62.39;101490.34;1866943;76;21165;-63
2022/10/14 12:07:25;;;;;;;2.27;1.25;;;;;;;16.21;62.21;101489.03;1772546;79;21202;-64
2022/10/14 12:10:41;;;;;;;3.50;1.35;;;;;;;16.27;61.91;101495.20;1838100;76;21194;-62
2022/10/14 12:13:54;;;;;;;2.70;1.32;;;;;;;16.25;61.57;101483.45;1836882;78;21170;-63
2022/10/14 12:17:01;;;;;;;3.95;1.37;;;;;;;16.36;61.60;101489.92;1838368;78;21221;-61
2022/10/14 12:20:22;;;;;;;3.02;1.40;;;;;;;16.49;61.55;101481.03;1838804;78;21346;-63
2022/10/14 12:23:45;;;;;;;6.65;1.45;;;;;;;16.67;61.50;101484.83;1803775;76;21201;-63
2022/10/14 12:27:03;;;;;;;2.80;1.45;;;;;;;16.78;61.25;101488.52;1791831;78;21178;-61
2022/10/14 12:30:13;;;;;;;2.15;1.32;;;;;;;16.89;61.05;101484.77;1795000;79;21816;-61
2022/10/14 12:33:20;;;;;;;7.80;1.80;;;;;;;17.09;61.04;101485.06;1797340;79;21241;-63
2022/10/14 12:36:40;;;;;;;5.50;1.60;;;;;;;17.26;60.87;101487.95;1797572;78;21237;-64
2022/10/14 12:39:51;;;;;;;2.70;1.42;;;;;;;17.35;60.54;101481.25;1796705;79;21254;-62
2022/10/14 12:43:13;;;;;;;2.27;1.30;;;;;;;17.34;59.96;101473.50;1796951;79;21185;-64
2022/10/14 12:46:20;;;;;;;3.80;1.98;;;;;;;17.34;59.65;101468.48;1789694;78;21193;-62
2022/10/14 12:49:38;;;;;;;4.37;1.50;;;;;;;17.31;59.20;101468.35;1799076;79;21162;-61
2022/10/14 12:52:46;;;;;;;3.20;1.40;;;;;;;17.38;59.32;101472.56;1791860;79;22066;-62
2022/10/14 12:56:03;;;;;;;1.67;1.10;;;;;;;17.48;59.37;101469.00;1794280;79;21195;-61
2022/10/14 12:59:13;;;;;;;2.58;1.25;;;;;;;17.52;59.15;101468.97;1793102;79;21210;-60
2022/10/14 13:02:35;;;;;;;6.67;1.95;;;;;;;17.50;58.79;101469.16;1802697;78;21534;-62
2022/10/14 13:05:48;;;;;;;6.03;1.77;;;;;;;17.44;58.39;101466.27;1798311;79;21264;-61
2022/10/14 13:09:21;;;;;;;4.22;2.35;;;;;;;17.38;58.14;101474.81;1786751;79;22095;-64
2022/10/14 13:12:34;;;;;;;4.85;2.30;;;;;;;17.34;57.93;101471.25;1754258;79;21302;-61
2022/10/14 13:15:58;;;;;;;3.75;1.87;;;;;;;17.16;57.57;101471.64;1794045;79;21708;-62
2022/10/14 13:19:10;;;;;;;7.67;2.45;;;;;;;17.12;57.71;101477.77;1794015;79;21833;-62
2022/10/14 13:22:38;;;;;;;5.78;2.17;;;;;;;17.19;57.96;101470.39;1729822;81;21231;-61
2022/10/14 13:25:46;;;;;;;4.87;2.20;;;;;;;17.17;57.53;101471.97;1844827;76;21186;-65
2022/10/14 13:29:09;;;;;;;2.83;1.65;;;;;;;17.06;57.20;101473.00;1834623;78;21753;-61
2022/10/14 13:32:34;;;;;;;4.47;1.70;;;;;;;16.97;56.97;101476.38;1755897;81;21805;-61
2022/10/14 13:36:05;;;;;;;9.78;2.33;;;;;;;16.83;56.60;101474.46;1842705;77;21323;-62
2022/10/14 13:39:11;;;;;;;6.35;2.20;;;;;;;16.68;56.64;101474.13;1793498;79;21228;-62
2022/10/14 13:42:21;;;;;;;9.20;2.58;;;;;;;16.57;56.52;101474.03;1841989;76;22002;-60
2022/10/14 13:45:29;;;;;;;4.92;1.77;;;;;;;16.53;56.56;101476.86;1843237;77;21193;-63
2022/10/14 13:48:49;;;;;;;7.42;2.20;;;;;;;16.43;56.29;101478.47;1842853;77;21251;-61
2022/10/14 13:52:00;;;;;;;10.90;2.02;;;;;;;16.33;56.24;101478.41;1855852;76;21836;-58
2022/10/14 13:55:22;;;;;;;5.30;2.27;;;;;;;16.23;56.22;101480.05;1775429;79;21699;-60
2022/10/14 13:58:30;;;;;;;4.28;1.98;;;;;;;16.10;56.10;101479.80;1843553;78;21208;-60
2022/10/14 14:01:40;;;;;;;5.80;2.27;;;;;;;15.94;55.87;101485.45;1858906;76;21165;-62
2022/10/14 14:04:46;;;;;;;4.75;2.12;;;;;;;15.76;55.77;101480.73;1877869;76;21196;-60
2022/10/14 14:07:52;;;;;;;8.83;2.12;;;;;;;15.59;55.57;101487.40;1845616;76;21704;-61
2022/10/14 14:11:03;;;;;;;9.45;2.08;;;;;;;15.42;55.44;101490.42;1844241;76;21310;-60
2022/10/14 14:14:20;;;;;;;4.40;2.20;;;;;;;15.24;55.47;101492.56;1790178;79;21212;-61
2022/10/14 14:17:33;;;;;;;12.07;2.30;;;;;;;15.00;55.35;101487.47;1835218;76;21196;-60
2022/10/14 14:20:37;;;;;;;9.63;2.30;;;;;;;14.72;55.17;101486.18;1847692;76;21164;-60
2022/10/14 14:23:44;;;;;;;7.50;2.60;;;;;;;14.40;54.95;101481.22;1826584;76;21223;-60
2022/10/14 14:26:50;;;;;;;21.85;2.60;;;;;;;14.15;54.95;101487.74;1770859;79;21741;-60
2022/10/14 14:29:57;;;;;;;14.25;2.37;;;;;;;13.95;54.93;101489.12;1807430;77;21196;-62
2022/10/14 14:33:05;;;;;;;8.98;2.58;;;;;;;13.74;54.87;101483.23;1850063;76;21216;-62
2022/10/14 14:36:12;;;;;;;10.88;2.58;;;;;;;13.55;54.82;101484.41;1845153;76;21224;-62
2022/10/14 14:39:34;;;;;;;13.18;2.62;;;;;;;13.33;54.84;101485.03;1863226;76;21847;-62
2022/10/14 14:42:44;;;;;;;9.73;3.62;;;;;;;13.12;54.82;101482.72;1850909;76;21196;-63
2022/10/14 14:45:50;;;;;;;18.27;6.35;;;;;;;12.89;54.79;101478.78;1855268;76;21172;-62
2022/10/14 14:49:01;;;;;;;24.65;6.20;;;;;;;12.68;54.81;101485.21;1868301;76;21542;-61
2022/10/14 14:52:07;;;;;;;20.92;5.92;;;;;;;12.49;54.85;101480.44;1798734;79;21181;-61
2022/10/14 14:55:15;;;;;;;23.18;5.22;;;;;;;12.28;54.88;101483.55;1876204;76;21718;-62
2022/10/14 14:58:31;;;;;;;36.25;7.42;;;;;;;12.08;54.95;101483.39;1858591;76;21184;-63
2022/10/14 15:01:39;;;;;;;18.92;6.97;;;;;;;11.90;54.99;101475.67;1876485;76;21513;-62
2022/10/14 15:04:47;;;;;;;21.68;7.08;;;;;;;11.70;54.96;101489.22;1847394;76;21250;-62